Stations météo

réclame
Mon MeteoGroup
Serralta di S. Vito, Italie (16364): Température de l'air & dewpoint: 12.06.2018 13:00:00 - 18.06.2018 13:00:00 (CEST)Serralta di S. Vito, Italie (16364): Vitesse du vent: 12.06.2018 13:00:00 - 18.06.2018 13:00:00 (CEST)Serralta di S. Vito, Italie (16364): Direction du vent: 12.06.2018 13:00:00 - 18.06.2018 13:00:00 (CEST)Serralta di S. Vito, Italie (16364): Quantités de précipitations: 12.06.2018 13:00:00 - 18.06.2018 13:00:00 (CEST)
Date & Time tt [°C] td [°C] ff [km/h] ff [knt] dd rr [mm]
18.06.2018 13:00:00 - - - - - -
18.06.2018 12:00:00 17,1 15,4 18 10 SW -
18.06.2018 11:00:00 16,3 14,6 15 8 WSW -
18.06.2018 10:00:00 15,0 12,7 18 10 W -
18.06.2018 09:00:00 15,0 12,7 16 9 WSW -
18.06.2018 08:00:00 14,6 12,3 18 10 SW -
18.06.2018 07:00:00 14,4 12,1 18 10 SSW -
18.06.2018 06:00:00 14,1 11,8 15 8 SW -
18.06.2018 05:00:00 14,8 12,5 13 7 WSW -
18.06.2018 04:00:00 14,7 12,4 16 9 W -
18.06.2018 03:00:00 14,5 12,2 16 9 WNW -
18.06.2018 02:00:00 14,4 12,1 21 11 SSW -
18.06.2018 01:00:00 14,7 12,4 22 12 SSW -
18.06.2018 00:00:00 14,7 12,4 21 11 W -
17.06.2018 23:00:00 14,5 12,2 24 13 W -
17.06.2018 22:00:00 14,6 12,3 24 13 WSW -
17.06.2018 21:00:00 14,8 12,5 24 13 W -
17.06.2018 20:00:00 14,9 12,6 28 15 SSW -
17.06.2018 19:00:00 15,0 12,7 28 15 W -
17.06.2018 18:00:00 15,0 12,7 26 14 NW -
17.06.2018 17:00:00 16,4 14,0 22 12 SW -
17.06.2018 16:00:00 16,4 14,0 18 10 W -
17.06.2018 15:00:00 16,6 14,2 22 12 W -
17.06.2018 14:00:00 16,1 14,4 18 10 W 0,0
17.06.2018 13:00:00 15,4 13,0 16 9 W -
17.06.2018 12:00:00 15,8 14,1 16 9 W -
17.06.2018 11:00:00 15,3 13,6 15 8 SSW -
17.06.2018 10:00:00 14,9 12,7 18 10 SSW -
17.06.2018 09:00:00 14,4 12,1 15 8 SSW -
17.06.2018 08:00:00 14,2 11,9 21 11 WSW -
17.06.2018 07:00:00 14,1 11,8 18 10 W -
17.06.2018 06:00:00 13,6 11,5 16 9 W -
17.06.2018 05:00:00 13,8 11,7 18 10 SW -
17.06.2018 04:00:00 14,0 11,8 22 12 NW -
17.06.2018 03:00:00 14,0 11,7 16 9 W -
17.06.2018 02:00:00 13,6 11,5 21 11 W 0,0
17.06.2018 01:00:00 14,2 11,9 22 12 W -
17.06.2018 00:00:00 14,2 11,9 18 10 W -
16.06.2018 23:00:00 14,3 12,0 22 12 WSW -
16.06.2018 22:00:00 14,4 12,1 24 13 WSW -
16.06.2018 21:00:00 14,5 12,2 22 12 W -
16.06.2018 20:00:00 14,5 12,2 26 14 NW 0,0
16.06.2018 19:00:00 15,0 12,8 26 14 N -
16.06.2018 18:00:00 16,1 14,0 22 12 WSW -
16.06.2018 17:00:00 16,0 13,6 21 11 WSW -
16.06.2018 16:00:00 16,8 14,4 21 11 WSW -
16.06.2018 15:00:00 15,2 12,8 21 11 SW -
16.06.2018 14:00:00 15,8 13,4 18 10 W 0,0
16.06.2018 13:00:00 15,5 13,1 18 10 WNW -
16.06.2018 12:00:00 15,3 12,9 21 11 WNW -
16.06.2018 11:00:00 15,3 13,4 21 11 WNW -
16.06.2018 10:00:00 14,7 12,4 18 10 W -
16.06.2018 09:00:00 13,8 11,7 21 11 WNW -
16.06.2018 08:00:00 13,9 11,6 18 10 W -
16.06.2018 07:00:00 13,8 11,7 16 9 W -
16.06.2018 06:00:00 13,6 11,5 13 7 WSW -
16.06.2018 05:00:00 13,4 11,3 15 8 WNW -
16.06.2018 04:00:00 13,5 11,4 15 8 WSW -
16.06.2018 03:00:00 13,4 11,3 13 7 W -
16.06.2018 02:00:00 13,4 11,3 13 7 NW -
16.06.2018 01:00:00 13,4 11,3 9 5 WNW -
16.06.2018 00:00:00 12,9 10,8 11 6 W -
15.06.2018 23:00:00 12,7 10,6 11 6 WNW -
15.06.2018 22:00:00 13,5 11,4 15 8 WNW -
15.06.2018 21:00:00 13,6 11,5 11 6 W -
15.06.2018 20:00:00 13,6 11,5 13 7 NW -
15.06.2018 19:00:00 13,9 11,7 13 7 W -
15.06.2018 18:00:00 13,8 11,7 15 8 W -
15.06.2018 17:00:00 13,1 11,1 9 5 NW -
15.06.2018 16:00:00 13,2 11,2 11 6 W -
15.06.2018 15:00:00 13,8 11,8 9 5 SW -
15.06.2018 14:00:00 14,8 12,6 5 3 W 0,0
15.06.2018 13:00:00 15,2 12,8 13 7 WSW -
15.06.2018 12:00:00 15,8 13,4 15 8 WNW -
15.06.2018 11:00:00 15,2 12,8 11 6 W -
15.06.2018 10:00:00 14,4 12,1 9 5 W -
15.06.2018 09:00:00 13,7 11,6 13 7 W -
15.06.2018 08:00:00 12,9 10,8 13 7 SW 0,0
15.06.2018 07:00:00 12,1 10,0 11 6 WSW -
15.06.2018 06:00:00 12,1 10,0 8 4 SW -
15.06.2018 05:00:00 12,0 9,9 9 5 SW -
15.06.2018 04:00:00 12,1 10,0 8 4 W -
15.06.2018 03:00:00 12,0 9,9 5 3 SW -
15.06.2018 02:00:00 12,2 10,1 8 4 W -
15.06.2018 01:00:00 12,6 10,5 11 6 SW -
15.06.2018 00:00:00 12,7 10,6 13 7 W -
14.06.2018 23:00:00 12,8 10,7 15 8 SW -
14.06.2018 22:00:00 12,9 10,8 21 11 WSW -
14.06.2018 21:00:00 12,9 10,8 18 10 SW -
14.06.2018 20:00:00 13,4 11,3 18 10 W -
14.06.2018 19:00:00 13,6 11,5 18 10 WSW -
14.06.2018 18:00:00 13,9 11,6 18 10 WSW -
14.06.2018 17:00:00 14,0 11,7 11 6 WNW -
14.06.2018 16:00:00 14,6 12,3 15 8 SW -
14.06.2018 15:00:00 13,8 11,5 15 8 W -
14.06.2018 14:00:00 14,1 11,8 18 10 NNW -
14.06.2018 13:00:00 14,9 12,6 15 8 W -
14.06.2018 12:00:00 13,9 11,6 16 9 WSW -
14.06.2018 11:00:00 13,6 11,5 21 11 SW -
14.06.2018 10:00:00 14,1 11,8 16 9 W -
14.06.2018 09:00:00 13,5 11,4 18 10 W -
14.06.2018 08:00:00 13,6 11,5 18 10 W -
14.06.2018 07:00:00 13,4 11,3 15 8 WSW -
14.06.2018 06:00:00 13,6 11,5 16 9 SW -
14.06.2018 05:00:00 13,7 11,6 16 9 SW -
14.06.2018 04:00:00 13,3 11,2 24 13 WSW -
14.06.2018 03:00:00 13,5 11,4 24 13 W -
14.06.2018 02:00:00 13,6 11,5 29 16 W 0,0
14.06.2018 01:00:00 13,7 11,6 29 16 W -
14.06.2018 00:00:00 13,7 11,6 16 9 W -
13.06.2018 23:00:00 13,9 11,7 24 13 W -
13.06.2018 22:00:00 13,8 11,7 22 12 WNW -
13.06.2018 21:00:00 14,5 12,2 24 13 W -
13.06.2018 20:00:00 14,2 11,9 24 13 W 0,0
13.06.2018 19:00:00 14,5 12,2 26 14 SW -
13.06.2018 18:00:00 15,3 12,9 24 13 SSW -
13.06.2018 17:00:00 15,5 13,1 26 14 SSW -
13.06.2018 16:00:00 16,1 13,7 16 9 W -
13.06.2018 15:00:00 17,0 15,3 15 8 W -
13.06.2018 14:00:00 15,8 13,9 26 14 W 0,0
13.06.2018 13:00:00 15,8 14,1 22 12 WSW -
13.06.2018 12:00:00 15,1 12,8 42 23 W -
13.06.2018 11:00:00 15,4 13,0 39 21 W -
13.06.2018 10:00:00 15,7 14,0 42 23 WSW -
13.06.2018 09:00:00 15,2 12,8 39 21 SW -
13.06.2018 08:00:00 15,0 12,7 35 19 W 0,0
13.06.2018 07:00:00 15,0 12,7 31 17 W -
13.06.2018 06:00:00 15,0 12,7 29 16 W -
13.06.2018 05:00:00 14,9 12,6 24 13 WSW -
13.06.2018 04:00:00 14,9 12,6 29 16 W -
13.06.2018 03:00:00 15,2 12,8 28 15 W -
13.06.2018 02:00:00 15,6 13,2 31 17 SW 0,0
13.06.2018 01:00:00 15,5 13,1 31 17 W -
13.06.2018 00:00:00 15,3 12,9 24 13 WSW -
12.06.2018 23:00:00 15,4 13,0 24 13 SW -
12.06.2018 22:00:00 15,8 13,4 26 14 WSW -
12.06.2018 21:00:00 16,0 13,6 29 16 WSW -
12.06.2018 20:00:00 16,4 14,2 28 15 SW 0,0
12.06.2018 19:00:00 18,2 14,8 18 10 WSW -
12.06.2018 18:00:00 21,3 17,2 16 9 WSW -
12.06.2018 17:00:00 22,6 18,1 15 8 W -
12.06.2018 16:00:00 23,7 19,4 11 6 WSW -
12.06.2018 15:00:00 24,3 19,9 13 7 WSW -
12.06.2018 14:00:00 23,6 18,6 15 8 WSW 0,0
12.06.2018 13:00:00 23,7 18,1 13 7 W -

tt = Température de l'air
td = dewpoint
ff = Vitesse du vent
dd = Direction du vent
rr = Quantités de précipitations

stations d'obs. à proximité